Adventureland Estates, Iowa
Current Conditions -  °F | °C
As of 6:55 PM on Friday 19 Dec 2014 (Local Time) from KIKV Reporting Station
Overcast Overcast  
Wind Chill: 25°   Ceiling: 800
Heat Index: 32°   Visibility: 8mi
Dew Point: 28°   Wind: 8mph
Humidity: 87%   Direction: 140°SE
Pressure: 30.2"   Gusts: NA
Location:  41.6405°N, 93.4586°W
Report Text: KIKV 200055Z AUTO 14007KT 8SM OVC008 M00/M02 A3020 RMK AO2
Loading
Personal Weather Stations






























Interactive Weather Map New forecast layout! Learn more

10-Day Weather Forecast

Advertisements
Track Severe Weather on mobile